sensor_id;sensor_type;location;lat;lon;timestamp;P1;durP1;ratioP1;P2;durP2;ratioP2
10319;SDS011;5205;52.168;5.420;2024-01-11T00:02:18;11.30;;;5.28;;
10319;SDS011;5205;52.168;5.420;2024-01-11T00:04:45;11.02;;;4.85;;
10319;SDS011;5205;52.168;5.420;2024-01-11T00:07:12;12.15;;;5.07;;
10319;SDS011;5205;52.168;5.420;2024-01-11T00:09:39;11.68;;;4.88;;
10319;SDS011;5205;52.168;5.420;2024-01-11T00:12:06;15.20;;;5.82;;
10319;SDS011;5205;52.168;5.420;2024-01-11T00:14:34;12.57;;;5.30;;
10319;SDS011;5205;52.168;5.420;2024-01-11T00:17:02;11.90;;;4.88;;
10319;SDS011;5205;52.168;5.420;2024-01-11T00:19:29;12.65;;;5.15;;
10319;SDS011;5205;52.168;5.420;2024-01-11T00:21:56;10.73;;;5.05;;
10319;SDS011;5205;52.168;5.420;2024-01-11T00:24:23;11.13;;;5.57;;
10319;SDS011;5205;52.168;5.420;2024-01-11T00:26:51;12.50;;;5.65;;
10319;SDS011;5205;52.168;5.420;2024-01-11T00:29:18;11.30;;;5.03;;
10319;SDS011;5205;52.168;5.420;2024-01-11T00:31:45;12.75;;;5.40;;
10319;SDS011;5205;52.168;5.420;2024-01-11T00:34:13;12.05;;;5.18;;
10319;SDS011;5205;52.168;5.420;2024-01-11T00:36:40;10.20;;;5.10;;
10319;SDS011;5205;52.168;5.420;2024-01-11T00:39:07;11.32;;;5.13;;
10319;SDS011;5205;52.168;5.420;2024-01-11T00:41:36;10.98;;;5.57;;
10319;SDS011;5205;52.168;5.420;2024-01-11T00:44:03;11.57;;;5.25;;
10319;SDS011;5205;52.168;5.420;2024-01-11T00:46:32;11.38;;;5.88;;
10319;SDS011;5205;52.168;5.420;2024-01-11T00:48:59;11.43;;;5.60;;
10319;SDS011;5205;52.168;5.420;2024-01-11T00:51:27;9.82;;;5.35;;
10319;SDS011;5205;52.168;5.420;2024-01-11T00:53:54;19.85;;;6.13;;
10319;SDS011;5205;52.168;5.420;2024-01-11T00:56:22;13.63;;;5.40;;
10319;SDS011;5205;52.168;5.420;2024-01-11T00:58:49;14.13;;;5.63;;
10319;SDS011;5205;52.168;5.420;2024-01-11T01:01:16;14.38;;;5.65;;
10319;SDS011;5205;52.168;5.420;2024-01-11T01:03:43;13.07;;;5.90;;
10319;SDS011;5205;52.168;5.420;2024-01-11T01:06:10;11.20;;;6.13;;
10319;SDS011;5205;52.168;5.420;2024-01-11T01:08:38;19.63;;;7.07;;
10319;SDS011;5205;52.168;5.420;2024-01-11T01:11:05;9.48;;;4.95;;
10319;SDS011;5205;52.168;5.420;2024-01-11T01:13:32;13.40;;;5.93;;
10319;SDS011;5205;52.168;5.420;2024-01-11T01:16:00;14.00;;;5.35;;
10319;SDS011;5205;52.168;5.420;2024-01-11T01:18:27;12.52;;;6.43;;
10319;SDS011;5205;52.168;5.420;2024-01-11T01:20:54;12.70;;;6.22;;
10319;SDS011;5205;52.168;5.420;2024-01-11T01:23:21;10.93;;;4.95;;
10319;SDS011;5205;52.168;5.420;2024-01-11T01:25:49;13.75;;;5.35;;
10319;SDS011;5205;52.168;5.420;2024-01-11T01:28:16;10.88;;;4.78;;
10319;SDS011;5205;52.168;5.420;2024-01-11T01:30:43;11.25;;;5.72;;
10319;SDS011;5205;52.168;5.420;2024-01-11T01:33:11;10.60;;;5.63;;
10319;SDS011;5205;52.168;5.420;2024-01-11T01:35:38;14.65;;;5.85;;
10319;SDS011;5205;52.168;5.420;2024-01-11T01:38:05;10.38;;;5.57;;
10319;SDS011;5205;52.168;5.420;2024-01-11T01:40:32;14.07;;;4.80;;
10319;SDS011;5205;52.168;5.420;2024-01-11T01:43:00;12.55;;;5.30;;
10319;SDS011;5205;52.168;5.420;2024-01-11T01:45:27;13.65;;;6.55;;
10319;SDS011;5205;52.168;5.420;2024-01-11T01:47:55;12.45;;;6.18;;
10319;SDS011;5205;52.168;5.420;2024-01-11T01:50:22;15.23;;;5.72;;
10319;SDS011;5205;52.168;5.420;2024-01-11T01:52:49;11.85;;;6.30;;
10319;SDS011;5205;52.168;5.420;2024-01-11T01:55:17;18.00;;;6.45;;
10319;SDS011;5205;52.168;5.420;2024-01-11T01:57:44;12.77;;;5.80;;
10319;SDS011;5205;52.168;5.420;2024-01-11T02:00:14;10.50;;;5.30;;
10319;SDS011;5205;52.168;5.420;2024-01-11T02:02:41;12.50;;;6.13;;
10319;SDS011;5205;52.168;5.420;2024-01-11T02:05:10;15.80;;;5.93;;
10319;SDS011;5205;52.168;5.420;2024-01-11T02:07:37;18.88;;;6.90;;
10319;SDS011;5205;52.168;5.420;2024-01-11T02:10:05;12.60;;;6.22;;
10319;SDS011;5205;52.168;5.420;2024-01-11T02:12:32;11.65;;;5.00;;
10319;SDS011;5205;52.168;5.420;2024-01-11T02:15:00;12.52;;;6.40;;
10319;SDS011;5205;52.168;5.420;2024-01-11T02:17:30;14.38;;;5.82;;
10319;SDS011;5205;52.168;5.420;2024-01-11T02:19:57;14.30;;;6.78;;
10319;SDS011;5205;52.168;5.420;2024-01-11T02:22:26;16.73;;;6.78;;
10319;SDS011;5205;52.168;5.420;2024-01-11T02:24:55;17.80;;;6.45;;
10319;SDS011;5205;52.168;5.420;2024-01-11T02:27:23;16.25;;;6.97;;
10319;SDS011;5205;52.168;5.420;2024-01-11T02:29:50;19.17;;;6.70;;
10319;SDS011;5205;52.168;5.420;2024-01-11T02:32:17;13.63;;;6.68;;
10319;SDS011;5205;52.168;5.420;2024-01-11T02:34:44;15.10;;;6.78;;
10319;SDS011;5205;52.168;5.420;2024-01-11T02:37:11;15.00;;;6.82;;
10319;SDS011;5205;52.168;5.420;2024-01-11T02:39:39;15.00;;;6.90;;
10319;SDS011;5205;52.168;5.420;2024-01-11T02:42:07;14.07;;;6.07;;
10319;SDS011;5205;52.168;5.420;2024-01-11T02:44:34;18.77;;;7.90;;
10319;SDS011;5205;52.168;5.420;2024-01-11T02:47:02;20.88;;;8.60;;
10319;SDS011;5205;52.168;5.420;2024-01-11T02:49:29;17.42;;;8.35;;
10319;SDS011;5205;52.168;5.420;2024-01-11T02:51:56;16.52;;;6.72;;
10319;SDS011;5205;52.168;5.420;2024-01-11T02:54:23;16.42;;;6.25;;
10319;SDS011;5205;52.168;5.420;2024-01-11T02:56:50;18.35;;;7.32;;
10319;SDS011;5205;52.168;5.420;2024-01-11T02:59:18;15.20;;;7.43;;
10319;SDS011;5205;52.168;5.420;2024-01-11T03:01:46;20.65;;;8.60;;
10319;SDS011;5205;52.168;5.420;2024-01-11T03:04:15;15.27;;;7.60;;
10319;SDS011;5205;52.168;5.420;2024-01-11T03:06:42;15.95;;;6.85;;
10319;SDS011;5205;52.168;5.420;2024-01-11T03:09:09;18.15;;;8.07;;
10319;SDS011;5205;52.168;5.420;2024-01-11T03:11:36;16.15;;;8.45;;
10319;SDS011;5205;52.168;5.420;2024-01-11T03:14:03;17.40;;;8.15;;
10319;SDS011;5205;52.168;5.420;2024-01-11T03:16:32;17.55;;;7.68;;
10319;SDS011;5205;52.168;5.420;2024-01-11T03:18:59;25.38;;;8.95;;
10319;SDS011;5205;52.168;5.420;2024-01-11T03:21:27;19.50;;;9.18;;
10319;SDS011;5205;52.168;5.420;2024-01-11T03:23:54;27.52;;;9.50;;
10319;SDS011;5205;52.168;5.420;2024-01-11T03:26:21;21.65;;;8.75;;
10319;SDS011;5205;52.168;5.420;2024-01-11T03:28:49;22.50;;;9.57;;
10319;SDS011;5205;52.168;5.420;2024-01-11T03:31:16;21.10;;;9.73;;
10319;SDS011;5205;52.168;5.420;2024-01-11T03:33:44;20.55;;;9.30;;
10319;SDS011;5205;52.168;5.420;2024-01-11T03:36:11;18.92;;;8.82;;
10319;SDS011;5205;52.168;5.420;2024-01-11T03:38:39;23.00;;;9.40;;
10319;SDS011;5205;52.168;5.420;2024-01-11T03:41:09;23.35;;;7.78;;
10319;SDS011;5205;52.168;5.420;2024-01-11T03:43:36;16.65;;;8.23;;
10319;SDS011;5205;52.168;5.420;2024-01-11T03:46:04;21.48;;;8.68;;
10319;SDS011;5205;52.168;5.420;2024-01-11T03:48:31;17.58;;;8.68;;
10319;SDS011;5205;52.168;5.420;2024-01-11T03:50:59;18.38;;;8.70;;
10319;SDS011;5205;52.168;5.420;2024-01-11T03:53:26;19.20;;;8.77;;
10319;SDS011;5205;52.168;5.420;2024-01-11T03:55:53;25.30;;;10.60;;
10319;SDS011;5205;52.168;5.420;2024-01-11T03:58:20;22.08;;;10.43;;
10319;SDS011;5205;52.168;5.420;2024-01-11T04:00:48;20.73;;;10.15;;
10319;SDS011;5205;52.168;5.420;2024-01-11T04:03:15;19.45;;;9.13;;
10319;SDS011;5205;52.168;5.420;2024-01-11T04:05:42;17.67;;;8.88;;
10319;SDS011;5205;52.168;5.420;2024-01-11T04:08:10;24.65;;;11.32;;
10319;SDS011;5205;52.168;5.420;2024-01-11T04:10:37;19.80;;;10.13;;
10319;SDS011;5205;52.168;5.420;2024-01-11T04:13:06;24.05;;;11.38;;
10319;SDS011;5205;52.168;5.420;2024-01-11T04:15:33;18.48;;;8.75;;
10319;SDS011;5205;52.168;5.420;2024-01-11T04:18:00;18.10;;;9.55;;
10319;SDS011;5205;52.168;5.420;2024-01-11T04:20:28;22.65;;;9.20;;
10319;SDS011;5205;52.168;5.420;2024-01-11T04:22:55;24.20;;;9.93;;
10319;SDS011;5205;52.168;5.420;2024-01-11T04:25:23;20.10;;;10.07;;
10319;SDS011;5205;52.168;5.420;2024-01-11T04:27:50;27.77;;;8.90;;
10319;SDS011;5205;52.168;5.420;2024-01-11T04:30:17;22.30;;;9.45;;
10319;SDS011;5205;52.168;5.420;2024-01-11T04:32:44;26.38;;;11.75;;
10319;SDS011;5205;52.168;5.420;2024-01-11T04:35:12;23.42;;;11.93;;
10319;SDS011;5205;52.168;5.420;2024-01-11T04:37:39;21.25;;;10.77;;
10319;SDS011;5205;52.168;5.420;2024-01-11T04:40:06;23.63;;;10.00;;
10319;SDS011;5205;52.168;5.420;2024-01-11T04:42:35;21.98;;;9.82;;
10319;SDS011;5205;52.168;5.420;2024-01-11T04:45:02;18.42;;;9.93;;
10319;SDS011;5205;52.168;5.420;2024-01-11T04:47:30;22.35;;;10.07;;
10319;SDS011;5205;52.168;5.420;2024-01-11T04:49:57;23.02;;;9.80;;
10319;SDS011;5205;52.168;5.420;2024-01-11T04:52:24;25.20;;;10.43;;
10319;SDS011;5205;52.168;5.420;2024-01-11T04:54:51;17.40;;;8.70;;
10319;SDS011;5205;52.168;5.420;2024-01-11T04:57:19;25.27;;;12.40;;
10319;SDS011;5205;52.168;5.420;2024-01-11T04:59:47;20.90;;;10.57;;
10319;SDS011;5205;52.168;5.420;2024-01-11T05:02:14;29.60;;;11.73;;
10319;SDS011;5205;52.168;5.420;2024-01-11T05:04:41;28.85;;;10.70;;
10319;SDS011;5205;52.168;5.420;2024-01-11T05:07:08;21.70;;;10.52;;
10319;SDS011;5205;52.168;5.420;2024-01-11T05:09:35;27.58;;;11.15;;
10319;SDS011;5205;52.168;5.420;2024-01-11T05:12:02;19.33;;;10.13;;
10319;SDS011;5205;52.168;5.420;2024-01-11T05:14:30;30.95;;;12.50;;
10319;SDS011;5205;52.168;5.420;2024-01-11T05:16:58;25.60;;;10.90;;
10319;SDS011;5205;52.168;5.420;2024-01-11T05:19:25;26.85;;;11.75;;
10319;SDS011;5205;52.168;5.420;2024-01-11T05:21:52;22.95;;;11.38;;
10319;SDS011;5205;52.168;5.420;2024-01-11T05:24:19;23.80;;;11.60;;
10319;SDS011;5205;52.168;5.420;2024-01-11T05:26:47;19.95;;;10.05;;
10319;SDS011;5205;52.168;5.420;2024-01-11T05:29:14;23.85;;;11.65;;
10319;SDS011;5205;52.168;5.420;2024-01-11T05:31:41;28.08;;;13.18;;
10319;SDS011;5205;52.168;5.420;2024-01-11T05:34:09;22.70;;;11.20;;
10319;SDS011;5205;52.168;5.420;2024-01-11T05:36:37;27.30;;;11.68;;
10319;SDS011;5205;52.168;5.420;2024-01-11T05:39:05;24.30;;;11.10;;
10319;SDS011;5205;52.168;5.420;2024-01-11T05:41:32;25.55;;;10.75;;
10319;SDS011;5205;52.168;5.420;2024-01-11T05:43:59;24.60;;;11.15;;
10319;SDS011;5205;52.168;5.420;2024-01-11T05:46:26;27.80;;;11.35;;
10319;SDS011;5205;52.168;5.420;2024-01-11T05:48:53;31.67;;;12.93;;
10319;SDS011;5205;52.168;5.420;2024-01-11T05:51:21;25.48;;;11.77;;
10319;SDS011;5205;52.168;5.420;2024-01-11T05:53:49;22.23;;;10.85;;
10319;SDS011;5205;52.168;5.420;2024-01-11T05:56:16;21.15;;;11.85;;
10319;SDS011;5205;52.168;5.420;2024-01-11T05:58:46;25.02;;;11.00;;
10319;SDS011;5205;52.168;5.420;2024-01-11T06:01:13;29.38;;;12.65;;
10319;SDS011;5205;52.168;5.420;2024-01-11T06:03:40;28.83;;;13.32;;
10319;SDS011;5205;52.168;5.420;2024-01-11T06:06:07;28.15;;;12.32;;
10319;SDS011;5205;52.168;5.420;2024-01-11T06:08:36;29.30;;;10.70;;
10319;SDS011;5205;52.168;5.420;2024-01-11T06:11:03;24.85;;;11.88;;
10319;SDS011;5205;52.168;5.420;2024-01-11T06:13:31;24.95;;;10.85;;
10319;SDS011;5205;52.168;5.420;2024-01-11T06:15:58;28.52;;;12.80;;
10319;SDS011;5205;52.168;5.420;2024-01-11T06:18:25;32.95;;;13.55;;
10319;SDS011;5205;52.168;5.420;2024-01-11T06:20:52;29.15;;;10.82;;
10319;SDS011;5205;52.168;5.420;2024-01-11T06:23:19;31.90;;;12.50;;
10319;SDS011;5205;52.168;5.420;2024-01-11T06:25:47;21.92;;;10.77;;
10319;SDS011;5205;52.168;5.420;2024-01-11T06:28:14;30.25;;;12.50;;
10319;SDS011;5205;52.168;5.420;2024-01-11T06:30:42;26.85;;;10.98;;
10319;SDS011;5205;52.168;5.420;2024-01-11T06:33:09;27.20;;;12.90;;
10319;SDS011;5205;52.168;5.420;2024-01-11T06:35:37;20.75;;;10.52;;
10319;SDS011;5205;52.168;5.420;2024-01-11T06:38:05;27.00;;;12.48;;
10319;SDS011;5205;52.168;5.420;2024-01-11T06:40:32;20.90;;;10.32;;
10319;SDS011;5205;52.168;5.420;2024-01-11T06:43:01;27.90;;;13.02;;
10319;SDS011;5205;52.168;5.420;2024-01-11T06:45:28;27.80;;;13.32;;
10319;SDS011;5205;52.168;5.420;2024-01-11T06:47:55;29.08;;;12.02;;
10319;SDS011;5205;52.168;5.420;2024-01-11T06:50:22;28.55;;;13.18;;
10319;SDS011;5205;52.168;5.420;2024-01-11T06:52:49;32.10;;;13.02;;
10319;SDS011;5205;52.168;5.420;2024-01-11T06:55:16;34.15;;;14.18;;
10319;SDS011;5205;52.168;5.420;2024-01-11T06:57:46;29.27;;;12.43;;
10319;SDS011;5205;52.168;5.420;2024-01-11T07:00:14;20.75;;;11.30;;
10319;SDS011;5205;52.168;5.420;2024-01-11T07:02:42;28.40;;;12.05;;
10319;SDS011;5205;52.168;5.420;2024-01-11T07:05:09;29.98;;;12.55;;
10319;SDS011;5205;52.168;5.420;2024-01-11T07:07:36;25.90;;;11.50;;
10319;SDS011;5205;52.168;5.420;2024-01-11T07:10:03;30.48;;;12.90;;
10319;SDS011;5205;52.168;5.420;2024-01-11T07:12:30;24.40;;;12.05;;
10319;SDS011;5205;52.168;5.420;2024-01-11T07:14:57;29.83;;;13.07;;
10319;SDS011;5205;52.168;5.420;2024-01-11T07:17:26;27.38;;;13.10;;
10319;SDS011;5205;52.168;5.420;2024-01-11T07:19:53;27.10;;;11.90;;
10319;SDS011;5205;52.168;5.420;2024-01-11T07:22:20;35.35;;;12.90;;
10319;SDS011;5205;52.168;5.420;2024-01-11T07:24:47;26.85;;;11.68;;
10319;SDS011;5205;52.168;5.420;2024-01-11T07:27:14;26.95;;;11.85;;
10319;SDS011;5205;52.168;5.420;2024-01-11T07:29:41;33.67;;;13.65;;
10319;SDS011;5205;52.168;5.420;2024-01-11T07:32:08;33.22;;;14.48;;
10319;SDS011;5205;52.168;5.420;2024-01-11T07:34:37;25.95;;;10.52;;
10319;SDS011;5205;52.168;5.420;2024-01-11T07:37:04;26.30;;;13.10;;
10319;SDS011;5205;52.168;5.420;2024-01-11T07:39:32;25.70;;;11.82;;
10319;SDS011;5205;52.168;5.420;2024-01-11T07:42:00;29.35;;;12.88;;
10319;SDS011;5205;52.168;5.420;2024-01-11T07:44:28;25.20;;;12.25;;
10319;SDS011;5205;52.168;5.420;2024-01-11T07:46:55;24.38;;;12.18;;
10319;SDS011;5205;52.168;5.420;2024-01-11T07:49:22;23.73;;;10.95;;
10319;SDS011;5205;52.168;5.420;2024-01-11T07:51:50;27.60;;;12.32;;
10319;SDS011;5205;52.168;5.420;2024-01-11T07:54:17;29.77;;;11.43;;
10319;SDS011;5205;52.168;5.420;2024-01-11T07:56:44;27.65;;;12.70;;
10319;SDS011;5205;52.168;5.420;2024-01-11T07:59:12;27.80;;;11.95;;
10319;SDS011;5205;52.168;5.420;2024-01-11T08:01:39;28.80;;;13.60;;
10319;SDS011;5205;52.168;5.420;2024-01-11T08:04:06;35.42;;;13.77;;
10319;SDS011;5205;52.168;5.420;2024-01-11T08:06:33;28.17;;;11.77;;
10319;SDS011;5205;52.168;5.420;2024-01-11T08:09:02;25.65;;;11.52;;
10319;SDS011;5205;52.168;5.420;2024-01-11T08:11:29;26.65;;;11.07;;
10319;SDS011;5205;52.168;5.420;2024-01-11T08:13:57;26.50;;;12.05;;
10319;SDS011;5205;52.168;5.420;2024-01-11T08:16:24;23.90;;;11.68;;
10319;SDS011;5205;52.168;5.420;2024-01-11T08:18:51;33.20;;;13.05;;
10319;SDS011;5205;52.168;5.420;2024-01-11T08:21:18;21.30;;;11.27;;
10319;SDS011;5205;52.168;5.420;2024-01-11T08:23:45;22.80;;;11.02;;
10319;SDS011;5205;52.168;5.420;2024-01-11T08:26:15;27.92;;;12.02;;
10319;SDS011;5205;52.168;5.420;2024-01-11T08:28:43;29.73;;;13.52;;
10319;SDS011;5205;52.168;5.420;2024-01-11T08:31:11;27.85;;;12.55;;
10319;SDS011;5205;52.168;5.420;2024-01-11T08:33:38;22.20;;;10.75;;
10319;SDS011;5205;52.168;5.420;2024-01-11T08:36:05;28.73;;;11.80;;
10319;SDS011;5205;52.168;5.420;2024-01-11T08:38:33;25.13;;;12.00;;
10319;SDS011;5205;52.168;5.420;2024-01-11T08:41:00;34.55;;;13.77;;
10319;SDS011;5205;52.168;5.420;2024-01-11T08:43:29;35.53;;;13.20;;
10319;SDS011;5205;52.168;5.420;2024-01-11T08:45:56;33.28;;;13.65;;
10319;SDS011;5205;52.168;5.420;2024-01-11T08:48:23;31.20;;;14.70;;
10319;SDS011;5205;52.168;5.420;2024-01-11T08:50:51;27.98;;;13.15;;
10319;SDS011;5205;52.168;5.420;2024-01-11T08:53:18;34.80;;;12.98;;
10319;SDS011;5205;52.168;5.420;2024-01-11T08:55:45;34.67;;;13.68;;
10319;SDS011;5205;52.168;5.420;2024-01-11T08:58:12;32.88;;;13.02;;
10319;SDS011;5205;52.168;5.420;2024-01-11T09:00:40;35.35;;;15.13;;
10319;SDS011;5205;52.168;5.420;2024-01-11T09:03:09;31.13;;;13.40;;
10319;SDS011;5205;52.168;5.420;2024-01-11T09:08:05;29.55;;;11.40;;
10319;SDS011;5205;52.168;5.420;2024-01-11T09:10:33;22.35;;;10.38;;
10319;SDS011;5205;52.168;5.420;2024-01-11T09:13:00;29.23;;;11.48;;
10319;SDS011;5205;52.168;5.420;2024-01-11T09:15:27;32.38;;;11.95;;
10319;SDS011;5205;52.168;5.420;2024-01-11T09:17:55;23.20;;;10.45;;
10319;SDS011;5205;52.168;5.420;2024-01-11T09:20:22;26.20;;;11.80;;
10319;SDS011;5205;52.168;5.420;2024-01-11T09:22:50;28.38;;;11.55;;
10319;SDS011;5205;52.168;5.420;2024-01-11T09:25:17;28.05;;;11.57;;
10319;SDS011;5205;52.168;5.420;2024-01-11T09:27:44;24.63;;;10.95;;
10319;SDS011;5205;52.168;5.420;2024-01-11T09:30:11;29.50;;;11.25;;
10319;SDS011;5205;52.168;5.420;2024-01-11T09:35:07;21.67;;;9.10;;
10319;SDS011;5205;52.168;5.420;2024-01-11T09:37:34;23.00;;;9.60;;
10319;SDS011;5205;52.168;5.420;2024-01-11T09:40:01;25.10;;;10.25;;
10319;SDS011;5205;52.168;5.420;2024-01-11T09:42:31;23.63;;;10.50;;
10319;SDS011;5205;52.168;5.420;2024-01-11T09:44:58;31.05;;;10.45;;
10319;SDS011;5205;52.168;5.420;2024-01-11T09:47:27;24.10;;;9.77;;
10319;SDS011;5205;52.168;5.420;2024-01-11T09:49:55;26.63;;;10.43;;
10319;SDS011;5205;52.168;5.420;2024-01-11T09:52:25;30.25;;;10.75;;
10319;SDS011;5205;52.168;5.420;2024-01-11T09:54:53;30.95;;;11.00;;
10319;SDS011;5205;52.168;5.420;2024-01-11T09:57:22;27.95;;;11.10;;
10319;SDS011;5205;52.168;5.420;2024-01-11T09:59:51;24.70;;;10.10;;
10319;SDS011;5205;52.168;5.420;2024-01-11T10:02:21;22.42;;;10.02;;
10319;SDS011;5205;52.168;5.420;2024-01-11T10:07:17;22.83;;;8.75;;
10319;SDS011;5205;52.168;5.420;2024-01-11T10:09:47;30.63;;;10.95;;
10319;SDS011;5205;52.168;5.420;2024-01-11T10:12:14;31.58;;;11.45;;
10319;SDS011;5205;52.168;5.420;2024-01-11T10:14:41;33.60;;;10.27;;
10319;SDS011;5205;52.168;5.420;2024-01-11T10:17:08;24.92;;;9.60;;
10319;SDS011;5205;52.168;5.420;2024-01-11T10:19:35;27.70;;;9.73;;
10319;SDS011;5205;52.168;5.420;2024-01-11T10:22:02;26.30;;;9.05;;
10319;SDS011;5205;52.168;5.420;2024-01-11T10:24:30;25.70;;;9.25;;
10319;SDS011;5205;52.168;5.420;2024-01-11T10:26:59;25.45;;;11.07;;
10319;SDS011;5205;52.168;5.420;2024-01-11T10:29:30;29.40;;;9.70;;
10319;SDS011;5205;52.168;5.420;2024-01-11T10:31:57;25.95;;;11.07;;
10319;SDS011;5205;52.168;5.420;2024-01-11T10:34:24;26.13;;;9.90;;
10319;SDS011;5205;52.168;5.420;2024-01-11T10:36:51;40.65;;;11.57;;
10319;SDS011;5205;52.168;5.420;2024-01-11T10:39:18;28.75;;;10.75;;
10319;SDS011;5205;52.168;5.420;2024-01-11T10:41:47;28.77;;;11.35;;
10319;SDS011;5205;52.168;5.420;2024-01-11T10:44:19;33.03;;;10.68;;
10319;SDS011;5205;52.168;5.420;2024-01-11T10:46:47;27.60;;;10.77;;
10319;SDS011;5205;52.168;5.420;2024-01-11T10:49:17;31.17;;;11.07;;
10319;SDS011;5205;52.168;5.420;2024-01-11T10:51:45;28.92;;;8.95;;
10319;SDS011;5205;52.168;5.420;2024-01-11T10:54:16;28.48;;;9.82;;
10319;SDS011;5205;52.168;5.420;2024-01-11T10:56:44;26.52;;;8.88;;
10319;SDS011;5205;52.168;5.420;2024-01-11T10:59:12;22.92;;;10.00;;
10319;SDS011;5205;52.168;5.420;2024-01-11T11:01:41;20.90;;;9.80;;
10319;SDS011;5205;52.168;5.420;2024-01-11T11:04:08;27.67;;;9.93;;
10319;SDS011;5205;52.168;5.420;2024-01-11T11:06:36;26.23;;;9.55;;
10319;SDS011;5205;52.168;5.420;2024-01-11T11:09:05;25.10;;;10.05;;
10319;SDS011;5205;52.168;5.420;2024-01-11T11:11:32;23.58;;;9.02;;
10319;SDS011;5205;52.168;5.420;2024-01-11T11:14:00;25.48;;;9.43;;
10319;SDS011;5205;52.168;5.420;2024-01-11T11:16:27;24.02;;;10.10;;
10319;SDS011;5205;52.168;5.420;2024-01-11T11:18:56;29.38;;;10.27;;
10319;SDS011;5205;52.168;5.420;2024-01-11T11:21:23;20.80;;;8.98;;
10319;SDS011;5205;52.168;5.420;2024-01-11T11:23:51;22.77;;;9.38;;
10319;SDS011;5205;52.168;5.420;2024-01-11T11:26:18;25.17;;;9.77;;
10319;SDS011;5205;52.168;5.420;2024-01-11T11:28:46;25.05;;;9.98;;
10319;SDS011;5205;52.168;5.420;2024-01-11T11:31:15;27.00;;;10.00;;
10319;SDS011;5205;52.168;5.420;2024-01-11T11:34:02;28.35;;;10.02;;
10319;SDS011;5205;52.168;5.420;2024-01-11T11:36:31;22.98;;;9.98;;
10319;SDS011;5205;52.168;5.420;2024-01-11T11:39:00;22.42;;;9.05;;
10319;SDS011;5205;52.168;5.420;2024-01-11T11:41:29;23.02;;;9.98;;
10319;SDS011;5205;52.168;5.420;2024-01-11T11:44:00;27.27;;;10.25;;
10319;SDS011;5205;52.168;5.420;2024-01-11T11:46:27;22.05;;;9.13;;
10319;SDS011;5205;52.168;5.420;2024-01-11T11:48:54;25.52;;;10.40;;
10319;SDS011;5205;52.168;5.420;2024-01-11T11:51:23;22.52;;;9.52;;
10319;SDS011;5205;52.168;5.420;2024-01-11T11:53:50;26.40;;;9.23;;
10319;SDS011;5205;52.168;5.420;2024-01-11T11:56:18;26.42;;;10.85;;
10319;SDS011;5205;52.168;5.420;2024-01-11T11:58:45;24.08;;;9.57;;
10319;SDS011;5205;52.168;5.420;2024-01-11T12:01:13;27.08;;;8.57;;
10319;SDS011;5205;52.168;5.420;2024-01-11T12:06:08;19.60;;;7.88;;
10319;SDS011;5205;52.168;5.420;2024-01-11T12:08:37;18.27;;;8.07;;
10319;SDS011;5205;52.168;5.420;2024-01-11T12:11:05;17.35;;;7.43;;
10319;SDS011;5205;52.168;5.420;2024-01-11T12:13:33;19.92;;;8.77;;
10319;SDS011;5205;52.168;5.420;2024-01-11T12:16:00;20.92;;;8.35;;
10319;SDS011;5205;52.168;5.420;2024-01-11T12:18:27;76.75;;;27.17;;
10319;SDS011;5205;52.168;5.420;2024-01-11T12:20:54;37.20;;;15.88;;
10319;SDS011;5205;52.168;5.420;2024-01-11T12:23:21;26.17;;;10.13;;
10319;SDS011;5205;52.168;5.420;2024-01-11T12:25:50;25.10;;;9.82;;
10319;SDS011;5205;52.168;5.420;2024-01-11T12:28:17;21.52;;;9.68;;
10319;SDS011;5205;52.168;5.420;2024-01-11T12:30:44;22.48;;;8.82;;
10319;SDS011;5205;52.168;5.420;2024-01-11T12:33:12;20.83;;;8.68;;
10319;SDS011;5205;52.168;5.420;2024-01-11T12:35:39;20.85;;;9.25;;
10319;SDS011;5205;52.168;5.420;2024-01-11T12:38:05;19.15;;;8.82;;
10319;SDS011;5205;52.168;5.420;2024-01-11T12:40:34;21.58;;;8.38;;
10319;SDS011;5205;52.168;5.420;2024-01-11T12:43:03;19.50;;;7.95;;
10319;SDS011;5205;52.168;5.420;2024-01-11T12:45:31;19.73;;;8.20;;
10319;SDS011;5205;52.168;5.420;2024-01-11T12:47:58;18.83;;;7.63;;
10319;SDS011;5205;52.168;5.420;2024-01-11T12:50:26;19.75;;;8.50;;
10319;SDS011;5205;52.168;5.420;2024-01-11T12:53:06;20.10;;;8.90;;
10319;SDS011;5205;52.168;5.420;2024-01-11T12:55:33;16.33;;;7.70;;
10319;SDS011;5205;52.168;5.420;2024-01-11T12:58:05;17.70;;;7.72;;
10319;SDS011;5205;52.168;5.420;2024-01-11T13:00:34;21.92;;;8.80;;
10319;SDS011;5205;52.168;5.420;2024-01-11T13:03:01;21.38;;;9.20;;
10319;SDS011;5205;52.168;5.420;2024-01-11T13:05:28;22.90;;;8.85;;
10319;SDS011;5205;52.168;5.420;2024-01-11T13:07:59;22.45;;;7.60;;
10319;SDS011;5205;52.168;5.420;2024-01-11T13:10:27;22.95;;;8.85;;
10319;SDS011;5205;52.168;5.420;2024-01-11T13:12:54;18.88;;;9.13;;
10319;SDS011;5205;52.168;5.420;2024-01-11T13:15:23;16.80;;;8.85;;
10319;SDS011;5205;52.168;5.420;2024-01-11T13:17:50;16.70;;;7.60;;
10319;SDS011;5205;52.168;5.420;2024-01-11T13:20:18;16.85;;;7.10;;
10319;SDS011;5205;52.168;5.420;2024-01-11T13:22:45;15.90;;;7.63;;
10319;SDS011;5205;52.168;5.420;2024-01-11T13:25:12;18.88;;;7.65;;
10319;SDS011;5205;52.168;5.420;2024-01-11T13:27:39;18.55;;;7.65;;
10319;SDS011;5205;52.168;5.420;2024-01-11T13:30:06;18.95;;;7.78;;
10319;SDS011;5205;52.168;5.420;2024-01-11T13:32:35;18.80;;;8.23;;
10319;SDS011;5205;52.168;5.420;2024-01-11T13:35:02;17.45;;;7.10;;
10319;SDS011;5205;52.168;5.420;2024-01-11T13:37:30;17.20;;;8.18;;
10319;SDS011;5205;52.168;5.420;2024-01-11T13:39:57;15.30;;;8.43;;
10319;SDS011;5205;52.168;5.420;2024-01-11T13:42:24;17.38;;;7.70;;
10319;SDS011;5205;52.168;5.420;2024-01-11T13:44:51;21.48;;;9.00;;
10319;SDS011;5205;52.168;5.420;2024-01-11T13:47:18;16.75;;;8.40;;
10319;SDS011;5205;52.168;5.420;2024-01-11T13:49:47;17.08;;;7.88;;
10319;SDS011;5205;52.168;5.420;2024-01-11T13:52:14;17.67;;;8.35;;
10319;SDS011;5205;52.168;5.420;2024-01-11T13:54:41;15.57;;;7.82;;
10319;SDS011;5205;52.168;5.420;2024-01-11T13:57:09;16.83;;;7.97;;
10319;SDS011;5205;52.168;5.420;2024-01-11T13:59:36;17.60;;;8.23;;
10319;SDS011;5205;52.168;5.420;2024-01-11T14:02:03;18.02;;;8.38;;
10319;SDS011;5205;52.168;5.420;2024-01-11T14:04:30;13.80;;;6.80;;
10319;SDS011;5205;52.168;5.420;2024-01-11T14:09:26;13.70;;;6.90;;
10319;SDS011;5205;52.168;5.420;2024-01-11T14:11:53;20.83;;;7.50;;
10319;SDS011;5205;52.168;5.420;2024-01-11T14:14:20;17.40;;;7.43;;
10319;SDS011;5205;52.168;5.420;2024-01-11T14:16:47;18.95;;;7.82;;
10319;SDS011;5205;52.168;5.420;2024-01-11T14:19:16;17.48;;;7.40;;
10319;SDS011;5205;52.168;5.420;2024-01-11T14:21:43;23.60;;;9.00;;
10319;SDS011;5205;52.168;5.420;2024-01-11T14:24:10;15.65;;;7.57;;
10319;SDS011;5205;52.168;5.420;2024-01-11T14:26:38;15.70;;;7.65;;
10319;SDS011;5205;52.168;5.420;2024-01-11T14:29:05;21.67;;;9.05;;
10319;SDS011;5205;52.168;5.420;2024-01-11T14:31:33;14.25;;;7.50;;
10319;SDS011;5205;52.168;5.420;2024-01-11T14:34:00;16.73;;;7.95;;
10319;SDS011;5205;52.168;5.420;2024-01-11T14:36:28;16.33;;;7.28;;
10319;SDS011;5205;52.168;5.420;2024-01-11T14:38:55;24.48;;;9.68;;
10319;SDS011;5205;52.168;5.420;2024-01-11T14:41:22;17.15;;;8.20;;
10319;SDS011;5205;52.168;5.420;2024-01-11T14:43:50;18.67;;;8.02;;
10319;SDS011;5205;52.168;5.420;2024-01-11T14:46:19;15.77;;;7.38;;
10319;SDS011;5205;52.168;5.420;2024-01-11T14:48:47;12.50;;;6.47;;
10319;SDS011;5205;52.168;5.420;2024-01-11T14:51:14;17.70;;;7.68;;
10319;SDS011;5205;52.168;5.420;2024-01-11T14:56:08;16.77;;;5.90;;
10319;SDS011;5205;52.168;5.420;2024-01-11T14:58:35;15.90;;;6.93;;
10319;SDS011;5205;52.168;5.420;2024-01-11T15:01:04;16.65;;;7.50;;